createdAt,value
2023-03-08T00:00:46.924Z,99314.47
2023-03-08T00:04:48.503Z,99323.47
2023-03-08T00:08:50.095Z,99326.31
2023-03-08T00:12:51.550Z,99323.41
2023-03-08T00:16:53.061Z,99331.16
2023-03-08T00:21:06.786Z,99331.78
2023-03-08T00:25:09.811Z,99331.47
2023-03-08T00:29:11.351Z,99343.00
2023-03-08T00:33:12.871Z,99342.88
2023-03-08T00:37:14.378Z,99347.00
2023-03-08T00:41:16.236Z,99347.66
2023-03-08T00:45:17.706Z,99358.72
2023-03-08T00:49:19.210Z,99354.72
2023-03-08T00:53:20.772Z,99356.59
2023-03-08T00:57:22.221Z,99361.44
2023-03-08T01:01:23.645Z,99361.75
2023-03-08T01:05:25.191Z,99368.00
2023-03-08T01:09:26.697Z,99370.88
2023-03-08T01:13:34.521Z,99385.41
2023-03-08T01:17:35.995Z,99383.00
2023-03-08T01:21:37.505Z,99390.72
2023-03-08T01:25:39.148Z,99396.91
2023-03-08T01:29:40.633Z,99398.53
2023-03-08T01:33:43.777Z,99397.59
2023-03-08T01:37:45.447Z,99391.94
2023-03-08T01:41:46.905Z,99393.06
2023-03-08T01:46:17.891Z,99400.44
2023-03-08T01:50:19.628Z,99397.34
2023-03-08T01:54:26.720Z,99400.19
2023-03-08T01:58:28.339Z,99399.72
2023-03-08T02:02:50.718Z,99406.91
2023-03-08T02:06:52.314Z,99404.56
2023-03-08T02:10:54.025Z,99407.94
2023-03-08T02:14:56.464Z,99407.09
2023-03-08T02:19:01.360Z,99401.69
2023-03-08T02:23:13.567Z,99398.63
2023-03-08T02:27:21.325Z,99406.44
2023-03-08T02:31:22.754Z,99402.25
2023-03-08T02:35:24.521Z,99410.56
2023-03-08T02:39:26.675Z,99421.22
2023-03-08T02:43:28.681Z,99416.91
2023-03-08T02:47:30.183Z,99427.31
2023-03-08T02:51:31.634Z,99420.13
2023-03-08T02:55:36.281Z,99419.16
2023-03-08T02:59:37.776Z,99420.94
2023-03-08T03:03:40.535Z,99413.94
2023-03-08T03:07:43.860Z,99417.59
2023-03-08T03:11:45.342Z,99417.84
2023-03-08T03:15:46.838Z,99426.00
2023-03-08T03:19:48.264Z,99414.84
2023-03-08T03:23:49.844Z,99429.84
2023-03-08T03:27:51.392Z,99426.34
2023-03-08T03:31:52.912Z,99430.69
2023-03-08T03:35:54.376Z,99434.09
2023-03-08T03:39:55.810Z,99439.97
2023-03-08T03:43:58.276Z,99447.31
2023-03-08T03:47:59.730Z,99448.41
2023-03-08T03:52:01.291Z,99456.56
2023-03-08T03:56:15.070Z,99461.44
2023-03-08T04:00:17.146Z,99458.53
2023-03-08T04:04:19.566Z,99462.97
2023-03-08T04:08:21.028Z,99462.69
2023-03-08T04:12:22.540Z,99464.66
2023-03-08T04:16:29.999Z,99464.84
2023-03-08T04:20:31.493Z,99471.72
2023-03-08T04:24:33.076Z,99469.41
2023-03-08T04:28:34.541Z,99463.91
2023-03-08T04:32:36.059Z,99462.91
2023-03-08T04:36:37.965Z,99463.97
2023-03-08T04:40:58.259Z,99467.19
2023-03-08T04:44:59.584Z,99459.47
2023-03-08T04:49:00.990Z,99458.63
2023-03-08T04:53:02.408Z,99453.41
2023-03-08T04:57:04.054Z,99460.59
2023-03-08T05:01:10.702Z,99459.28
2023-03-08T05:05:12.183Z,99461.34
2023-03-08T05:09:13.708Z,99459.72
2023-03-08T05:13:15.281Z,99463.50
2023-03-08T05:17:16.755Z,99459.44
2023-03-08T05:21:20.888Z,99467.44
2023-03-08T05:25:22.439Z,99468.56
2023-03-08T05:29:23.904Z,99470.94
2023-03-08T05:33:25.364Z,99474.88
2023-03-08T05:37:27.565Z,99469.81
2023-03-08T05:41:29.171Z,99476.41
2023-03-08T05:45:30.692Z,99483.03
2023-03-08T05:49:32.122Z,99485.38
2023-03-08T05:53:33.969Z,99483.06
2023-03-08T05:57:36.422Z,99497.50
2023-03-08T06:01:37.979Z,99500.59
2023-03-08T06:05:39.418Z,99498.75
2023-03-08T06:09:40.883Z,99495.53
2023-03-08T06:13:42.673Z,99500.69
2023-03-08T06:17:44.393Z,99500.44
2023-03-08T06:21:45.825Z,99504.38
2023-03-08T06:25:47.259Z,99502.41
2023-03-08T06:29:48.893Z,99495.63
2023-03-08T06:33:50.332Z,99502.41
2023-03-08T06:37:51.795Z,99506.91
2023-03-08T06:41:53.255Z,99512.50
2023-03-08T06:45:54.858Z,99510.44
2023-03-08T06:49:56.514Z,99501.75
2023-03-08T06:53:57.960Z,99506.22
2023-03-08T06:57:59.367Z,99499.19
2023-03-08T07:02:00.836Z,99496.22
2023-03-08T07:06:05.994Z,99481.97
2023-03-08T07:10:08.789Z,99476.50
2023-03-08T07:14:10.244Z,99490.19
2023-03-08T07:18:11.686Z,99478.34
2023-03-08T07:22:13.311Z,99474.84
2023-03-08T07:26:14.773Z,99479.03
2023-03-08T07:30:17.044Z,99478.06
2023-03-08T07:34:18.437Z,99485.09
2023-03-08T07:38:20.170Z,99492.22
2023-03-08T07:42:21.668Z,99499.41
2023-03-08T07:46:23.253Z,99502.31
2023-03-08T07:50:24.858Z,99508.38
2023-03-08T07:54:26.507Z,99498.47
2023-03-08T07:58:28.576Z,99499.91
2023-03-08T08:02:30.036Z,99492.38
2023-03-08T08:06:31.543Z,99496.88
2023-03-08T08:10:33.033Z,99492.03
2023-03-08T08:14:34.589Z,99482.84
2023-03-08T08:18:36.321Z,99484.47
2023-03-08T08:22:37.885Z,99478.06
2023-03-08T08:26:39.392Z,99474.63
2023-03-08T08:30:40.858Z,99485.84
2023-03-08T08:34:42.419Z,99476.75
2023-03-08T08:38:45.995Z,99472.88
2023-03-08T08:42:47.440Z,99463.34
2023-03-08T08:46:48.883Z,99451.84
2023-03-08T08:50:51.174Z,99447.31
2023-03-08T08:54:53.336Z,99443.03
2023-03-08T08:59:00.134Z,99433.09
2023-03-08T09:03:02.717Z,99432.63
2023-03-08T09:07:04.289Z,99437.75
2023-03-08T09:11:08.563Z,99435.00
2023-03-08T09:15:11.575Z,99432.75
2023-03-08T09:19:13.050Z,99431.69
2023-03-08T09:23:14.612Z,99434.75
2023-03-08T09:27:16.505Z,99435.63
2023-03-08T09:31:18.465Z,99421.56
2023-03-08T09:35:19.967Z,99424.97
2023-03-08T09:39:21.759Z,99407.69
2023-03-08T09:43:39.471Z,99411.81
2023-03-08T09:47:46.984Z,99415.00
2023-03-08T09:51:54.172Z,99403.41
2023-03-08T09:56:06.890Z,99395.56
2023-03-08T10:00:23.227Z,99393.84
2023-03-08T10:04:40.733Z,99385.41
2023-03-08T10:08:51.592Z,99391.69
2023-03-08T10:13:17.171Z,99379.13
2023-03-08T10:17:23.374Z,99380.56
2023-03-08T10:21:26.763Z,99374.66
2023-03-08T10:25:34.205Z,99374.13
2023-03-08T10:29:35.725Z,99385.50
2023-03-08T10:33:37.273Z,99375.00
2023-03-08T10:37:38.811Z,99376.47
2023-03-08T10:41:43.638Z,99367.47
2023-03-08T10:45:45.132Z,99362.94
2023-03-08T10:49:47.454Z,99354.13
2023-03-08T10:54:02.594Z,99350.03
2023-03-08T10:58:04.578Z,99343.97
2023-03-08T11:02:15.492Z,99333.06
2023-03-08T11:06:16.999Z,99328.66
2023-03-08T11:10:20.672Z,99331.69
2023-03-08T11:14:22.652Z,99326.59
2023-03-08T11:18:26.870Z,99337.63
2023-03-08T11:22:42.951Z,99324.84
2023-03-08T11:27:03.117Z,99308.09
2023-03-08T11:31:18.779Z,99297.50
2023-03-08T11:35:25.436Z,99288.34
2023-03-08T11:39:33.326Z,99282.06
2023-03-08T11:44:18.605Z,99281.13
2023-03-08T11:49:04.479Z,99279.38
2023-03-08T11:53:28.856Z,99272.13
2023-03-08T11:57:34.873Z,99264.13
2023-03-08T12:01:48.844Z,99252.41
2023-03-08T12:06:08.557Z,99256.03
2023-03-08T12:10:23.753Z,99240.91
2023-03-08T12:14:34.029Z,99238.34
2023-03-08T12:18:56.026Z,99234.69
2023-03-08T12:23:06.609Z,99229.41
2023-03-08T12:27:10.455Z,99228.06
2023-03-08T12:31:27.892Z,99216.03
2023-03-08T12:35:33.795Z,99218.69
2023-03-08T12:39:36.774Z,99221.03
2023-03-08T12:43:38.635Z,99209.78
2023-03-08T12:47:40.225Z,99203.09
2023-03-08T12:51:41.809Z,99199.22
2023-03-08T12:55:43.546Z,99205.59
2023-03-08T12:59:45.616Z,99203.84
2023-03-08T13:03:47.081Z,99205.66
2023-03-08T13:08:14.918Z,99205.25
2023-03-08T13:12:16.307Z,99206.59
2023-03-08T13:16:18.246Z,99214.28
2023-03-08T13:20:21.448Z,99220.00
2023-03-08T13:24:31.729Z,99217.72
2023-03-08T13:28:46.684Z,99223.00
2023-03-08T13:32:50.096Z,99219.59
2023-03-08T13:36:51.588Z,99219.66
2023-03-08T13:40:54.989Z,99213.16
2023-03-08T13:45:17.023Z,99218.63
2023-03-08T13:49:32.539Z,99210.78
2023-03-08T13:53:37.272Z,99207.97
2023-03-08T13:57:41.939Z,99210.91
2023-03-08T14:01:51.388Z,99215.16
2023-03-08T14:05:52.874Z,99215.38
2023-03-08T14:09:55.439Z,99210.47
2023-03-08T14:13:59.080Z,99218.31
2023-03-08T14:18:00.751Z,99213.56
2023-03-08T14:22:14.043Z,99213.31
2023-03-08T14:26:32.447Z,99209.31
2023-03-08T14:30:33.985Z,99196.34
2023-03-08T14:34:39.529Z,99190.78
2023-03-08T14:38:41.070Z,99189.53
2023-03-08T14:42:48.714Z,99187.47
2023-03-08T14:46:58.112Z,99177.78
2023-03-08T14:51:02.529Z,99178.69
2023-03-08T14:55:18.766Z,99181.56
2023-03-08T14:59:27.792Z,99178.13
2023-03-08T15:03:31.713Z,99186.53
2023-03-08T15:07:36.054Z,99185.19
2023-03-08T15:11:37.592Z,99181.75
2023-03-08T15:15:39.119Z,99187.13
2023-03-08T15:19:40.584Z,99177.56
2023-03-08T15:23:43.336Z,99162.19
2023-03-08T15:27:44.887Z,99157.03
2023-03-08T15:31:46.350Z,99163.28
2023-03-08T15:35:48.848Z,99157.06
2023-03-08T15:39:50.331Z,99157.50
2023-03-08T15:43:54.378Z,99143.25
2023-03-08T15:48:02.854Z,99149.25
2023-03-08T15:52:05.533Z,99141.44
2023-03-08T15:56:08.316Z,99146.50
2023-03-08T16:00:12.519Z,99142.94
2023-03-08T16:04:13.997Z,99134.44
2023-03-08T16:08:15.418Z,99144.69
2023-03-08T16:12:16.941Z,99140.53
2023-03-08T16:16:19.909Z,99146.88
2023-03-08T16:20:23.161Z,99135.50
2023-03-08T16:24:24.729Z,99142.97
2023-03-08T16:28:26.341Z,99140.44
2023-03-08T16:32:28.269Z,99140.81
2023-03-08T16:36:29.864Z,99138.09
2023-03-08T16:40:32.986Z,99136.16
2023-03-08T16:44:34.474Z,99138.53
2023-03-08T16:48:35.994Z,99131.63
2023-03-08T16:52:37.486Z,99135.16
2023-03-08T16:56:43.029Z,99125.50
2023-03-08T17:00:44.611Z,99123.69
2023-03-08T17:04:46.968Z,99128.81
2023-03-08T17:08:49.013Z,99121.78
2023-03-08T17:12:50.568Z,99134.25
2023-03-08T17:16:52.043Z,99138.91
2023-03-08T17:20:53.696Z,99124.31
2023-03-08T17:24:55.199Z,99128.91
2023-03-08T17:28:56.796Z,99125.50
2023-03-08T17:32:58.321Z,99130.19
2023-03-08T17:36:59.756Z,99129.25
2023-03-08T17:41:05.841Z,99127.63
2023-03-08T17:45:08.060Z,99121.00
2023-03-08T17:49:11.942Z,99119.78
2023-03-08T17:53:13.398Z,99116.59
2023-03-08T17:57:15.975Z,99112.97
2023-03-08T18:01:20.688Z,99116.59
2023-03-08T18:05:22.142Z,99116.78
2023-03-08T18:09:23.946Z,99109.16
2023-03-08T18:13:25.881Z,99115.25
2023-03-08T18:17:27.422Z,99115.31
2023-03-08T18:21:31.928Z,99114.31
2023-03-08T18:25:34.374Z,99121.56
2023-03-08T18:29:36.661Z,99129.34
2023-03-08T18:33:38.351Z,99136.66
2023-03-08T18:37:39.772Z,99142.25
2023-03-08T18:41:41.609Z,99142.53
2023-03-08T18:45:54.088Z,99139.22
2023-03-08T18:49:55.623Z,99138.34
2023-03-08T18:53:58.467Z,99133.34
2023-03-08T18:57:59.917Z,99121.63
2023-03-08T19:02:01.497Z,99124.22
2023-03-08T19:06:04.713Z,99129.25
2023-03-08T19:10:06.602Z,99125.63
2023-03-08T19:14:09.305Z,99110.81
2023-03-08T19:18:10.928Z,99105.53
2023-03-08T19:22:12.499Z,99098.22
2023-03-08T19:26:36.036Z,99093.31
2023-03-08T19:30:37.492Z,99092.03
2023-03-08T19:34:42.225Z,99088.38
2023-03-08T19:38:43.774Z,99098.59
2023-03-08T19:42:45.247Z,99096.22
2023-03-08T19:46:47.455Z,99081.69
2023-03-08T19:50:48.886Z,99084.25
2023-03-08T19:54:50.466Z,99092.00
2023-03-08T19:58:55.355Z,99093.06
2023-03-08T20:02:56.838Z,99086.06
2023-03-08T20:07:01.548Z,99083.06
2023-03-08T20:11:03.698Z,99085.84
2023-03-08T20:15:05.612Z,99097.69
2023-03-08T20:19:07.195Z,99077.59
2023-03-08T20:23:08.859Z,99076.75
2023-03-08T20:27:10.392Z,99084.44
2023-03-08T20:31:12.827Z,99082.66
2023-03-08T20:35:14.975Z,99085.84
2023-03-08T20:39:16.536Z,99072.94
2023-03-08T20:43:18.004Z,99078.25
2023-03-08T20:47:19.448Z,99074.16
2023-03-08T20:51:22.026Z,99087.84
2023-03-08T20:55:23.508Z,99077.53
2023-03-08T20:59:26.938Z,99088.78
2023-03-08T21:03:28.566Z,99084.59
2023-03-08T21:07:31.140Z,99082.66
2023-03-08T21:11:32.783Z,99078.00
2023-03-08T21:15:35.092Z,99071.88
2023-03-08T21:19:36.852Z,99072.22
2023-03-08T21:23:38.291Z,99076.81
2023-03-08T21:27:39.760Z,99075.81
2023-03-08T21:31:44.544Z,99070.66
2023-03-08T21:35:46.109Z,99080.97
2023-03-08T21:39:47.717Z,99081.13
2023-03-08T21:43:49.607Z,99081.28
2023-03-08T21:47:51.084Z,99080.13
2023-03-08T21:51:54.150Z,99080.22
2023-03-08T21:55:55.639Z,99084.03
2023-03-08T21:59:57.142Z,99077.03
2023-03-08T22:03:59.950Z,99072.50
2023-03-08T22:08:01.394Z,99060.69
2023-03-08T22:12:02.867Z,99072.25
2023-03-08T22:16:05.147Z,99075.19
2023-03-08T22:20:10.415Z,99066.16
2023-03-08T22:24:11.918Z,99058.28
2023-03-08T22:28:13.736Z,99054.69
2023-03-08T22:32:15.512Z,99057.44
2023-03-08T22:36:19.364Z,99058.06
2023-03-08T22:40:20.780Z,99061.88
2023-03-08T22:44:22.267Z,99056.97
2023-03-08T22:48:23.728Z,99050.38
2023-03-08T22:52:25.211Z,99045.50
2023-03-08T22:56:30.186Z,99032.88
2023-03-08T23:00:31.713Z,99036.28
2023-03-08T23:04:33.275Z,99039.63
2023-03-08T23:08:34.860Z,99020.13
2023-03-08T23:12:36.804Z,99024.50
2023-03-08T23:16:41.969Z,99009.00
2023-03-08T23:20:43.510Z,99012.28
2023-03-08T23:24:45.664Z,98995.91
2023-03-08T23:28:47.446Z,98991.47
2023-03-08T23:32:49.058Z,99013.25
2023-03-08T23:36:50.632Z,99005.34
2023-03-08T23:40:52.081Z,98966.38
2023-03-08T23:44:53.636Z,98956.03
2023-03-08T23:48:56.917Z,98976.50
2023-03-08T23:52:58.363Z,98979.16
2023-03-08T23:56:59.791Z,98976.13
